Time;durP1;ratioP1;P1;durP2;ratioP2;P2;SDS_P1;SDS_P2;PMS_P1;PMS_P2;Temp;Humidity;BMP_temperature;BMP_pressure;BME280_temperature;BME280_humidity;BME280_pressure;Samples;Min_cycle;Max_cycle;Signal;HPM_P1;HPM_P2
2022/05/26 00:00:57;;;;;;;1.05;0.85;;;;;;;;;;5031283;28;20187;-70
2022/05/26 00:03:23;;;;;;;1.65;0.90;;;;;;;;;;5025375;28;20187;-69
2022/05/26 00:05:49;;;;;;;1.58;0.73;;;;;;;;;;5025603;28;20183;-68
2022/05/26 00:08:15;;;;;;;1.17;0.90;;;;;;;;;;5025469;28;20195;-70
2022/05/26 00:10:41;;;;;;;1.63;1.00;;;;;;;;;;5026065;28;20210;-70
2022/05/26 00:13:07;;;;;;;2.25;0.80;;;;;;;;;;5029715;28;20187;-68
2022/05/26 00:15:33;;;;;;;2.65;0.90;;;;;;;;;;5030127;28;20187;-69
2022/05/26 00:17:59;;;;;;;0.80;0.70;;;;;;;;;;5030298;28;20231;-69
2022/05/26 00:20:25;;;;;;;0.98;0.80;;;;;;;;;;5025917;28;20963;-70
2022/05/26 00:22:51;;;;;;;0.85;0.60;;;;;;;;;;5027902;28;20191;-69
2022/05/26 00:25:17;;;;;;;1.30;0.75;;;;;;;;;;5028072;28;20183;-70
2022/05/26 00:27:43;;;;;;;1.85;0.82;;;;;;;;;;5032719;28;20201;-69
2022/05/26 00:30:09;;;;;;;2.28;1.02;;;;;;;;;;5029725;28;20183;-69
2022/05/26 00:32:35;;;;;;;0.82;0.68;;;;;;;;;;5025372;28;20190;-68
2022/05/26 00:35:01;;;;;;;2.03;0.80;;;;;;;;;;5025258;28;20186;-70
2022/05/26 00:37:27;;;;;;;1.02;0.80;;;;;;;;;;5024723;28;20594;-70
2022/05/26 00:39:53;;;;;;;1.33;0.90;;;;;;;;;;5030944;28;20214;-69
2022/05/26 00:42:19;;;;;;;0.80;0.60;;;;;;;;;;5025064;28;20183;-69
2022/05/26 00:44:45;;;;;;;1.45;0.88;;;;;;;;;;5032165;28;20550;-70
2022/05/26 00:47:28;;;;;;;1.10;0.93;;;;;;;;;;5028042;28;20279;-71
2022/05/26 00:49:54;;;;;;;1.35;0.80;;;;;;;;;;5031522;28;20186;-69
2022/05/26 00:52:42;;;;;;;0.90;0.90;;;;;;;;;;5027322;28;20263;-68
2022/05/26 00:55:10;;;;;;;2.38;0.90;;;;;;;;;;5028695;28;20194;-70
2022/05/26 00:57:40;;;;;;;1.38;1.00;;;;;;;;;;5024480;28;20253;-69
2022/05/26 01:00:09;;;;;;;1.45;0.82;;;;;;;;;;5036758;28;20231;-69
2022/05/26 01:02:37;;;;;;;2.67;1.08;;;;;;;;;;5031320;28;20631;-71
2022/05/26 01:05:14;;;;;;;2.05;0.98;;;;;;;;;;5025458;28;20267;-70
2022/05/26 01:07:40;;;;;;;1.60;1.00;;;;;;;;;;5033339;28;20277;-69
2022/05/26 01:10:07;;;;;;;1.15;1.00;;;;;;;;;;5029588;28;20539;-71
2022/05/26 01:12:33;;;;;;;1.77;0.85;;;;;;;;;;5030833;28;20189;-70
2022/05/26 01:15:02;;;;;;;1.50;1.00;;;;;;;;;;5034035;28;20545;-70
2022/05/26 01:17:46;;;;;;;1.20;0.85;;;;;;;;;;5025429;28;20188;-70
2022/05/26 01:20:18;;;;;;;1.92;0.98;;;;;;;;;;5028349;28;20238;-69
2022/05/26 01:23:03;;;;;;;2.45;1.20;;;;;;;;;;5024156;28;20183;-70
2022/05/26 01:25:29;;;;;;;1.88;0.90;;;;;;;;;;5031586;28;20191;-70
2022/05/26 01:28:14;;;;;;;0.82;0.82;;;;;;;;;;5029729;28;20210;-70
2022/05/26 01:30:44;;;;;;;2.65;1.10;;;;;;;;;;5022942;28;20555;-70
2022/05/26 01:33:17;;;;;;;1.52;0.90;;;;;;;;;;5028058;28;20278;-69
2022/05/26 01:35:53;;;;;;;1.05;0.80;;;;;;;;;;5023815;28;20183;-69
2022/05/26 01:38:19;;;;;;;1.27;1.02;;;;;;;;;;5024303;28;20217;-69
2022/05/26 01:40:54;;;;;;;1.05;0.88;;;;;;;;;;5031673;28;20214;-70
2022/05/26 01:43:35;;;;;;;1.25;0.98;;;;;;;;;;5026671;28;20197;-69
2022/05/26 01:46:08;;;;;;;2.20;1.08;;;;;;;;;;5029044;28;20186;-68
2022/05/26 01:48:41;;;;;;;1.77;1.05;;;;;;;;;;5030930;28;20213;-69
2022/05/26 01:51:12;;;;;;;2.72;1.30;;;;;;;;;;5035924;28;20553;-69
2022/05/26 01:53:38;;;;;;;1.55;1.10;;;;;;;;;;5023725;28;20183;-71
2022/05/26 01:56:11;;;;;;;2.10;1.27;;;;;;;;;;5028466;28;20274;-69
2022/05/26 01:58:39;;;;;;;1.50;1.00;;;;;;;;;;5024272;28;20217;-70
2022/05/26 02:01:09;;;;;;;2.00;1.00;;;;;;;;;;5028763;28;20183;-68
2022/05/26 02:03:37;;;;;;;3.13;1.02;;;;;;;;;;5023531;28;20261;-70
2022/05/26 02:06:13;;;;;;;1.30;1.10;;;;;;;;;;5023893;28;20191;-69
2022/05/26 02:08:43;;;;;;;1.25;1.05;;;;;;;;;;5032501;28;20568;-70
2022/05/26 02:11:17;;;;;;;2.53;1.13;;;;;;;;;;5028228;28;20203;-70
2022/05/26 02:14:02;;;;;;;1.10;1.00;;;;;;;;;;5030739;28;20461;-68
2022/05/26 02:16:37;;;;;;;0.88;0.88;;;;;;;;;;5025290;28;20189;-70
2022/05/26 02:19:23;;;;;;;3.13;1.27;;;;;;;;;;5028408;28;20256;-70
2022/05/26 02:21:52;;;;;;;3.85;1.20;;;;;;;;;;5023380;28;20305;-69
2022/05/26 02:24:22;;;;;;;1.30;1.20;;;;;;;;;;5026028;28;20270;-71
2022/05/26 02:26:49;;;;;;;3.90;1.40;;;;;;;;;;5029141;28;20514;-70
2022/05/26 02:32:03;;;;;;;1.25;1.15;;;;;;;;;;5034228;28;20209;-70
2022/05/26 02:34:29;;;;;;;2.90;1.27;;;;;;;;;;5034870;28;20196;-71
2022/05/26 02:36:56;;;;;;;1.65;1.20;;;;;;;;;;5030258;28;20288;-71
2022/05/26 02:39:22;;;;;;;2.45;1.42;;;;;;;;;;5029803;28;20670;-69
2022/05/26 02:41:48;;;;;;;1.27;1.17;;;;;;;;;;5030946;28;20187;-69
2022/05/26 02:44:15;;;;;;;1.30;1.20;;;;;;;;;;5027013;28;20649;-69
2022/05/26 02:46:53;;;;;;;1.77;1.30;;;;;;;;;;5026825;28;20186;-70
2022/05/26 02:49:34;;;;;;;3.33;1.30;;;;;;;;;;5030066;28;20260;-70
2022/05/26 02:52:06;;;;;;;2.47;1.10;;;;;;;;;;5028687;28;20661;-70
2022/05/26 02:54:35;;;;;;;3.25;1.30;;;;;;;;;;5031818;28;20201;-69
2022/05/26 02:57:07;;;;;;;2.13;1.17;;;;;;;;;;5031716;28;20208;-70
2022/05/26 02:59:39;;;;;;;3.13;1.27;;;;;;;;;;5027914;28;20213;-69
2022/05/26 03:02:18;;;;;;;1.90;1.27;;;;;;;;;;5031416;28;20206;-70
2022/05/26 03:04:45;;;;;;;3.45;1.30;;;;;;;;;;5029497;28;20183;-69
2022/05/26 03:07:14;;;;;;;1.27;1.17;;;;;;;;;;5029975;28;20187;-68
2022/05/26 03:09:41;;;;;;;1.30;1.20;;;;;;;;;;5034894;28;20705;-70
2022/05/26 03:12:20;;;;;;;1.88;1.42;;;;;;;;;;5026968;28;20202;-69
2022/05/26 03:14:46;;;;;;;1.63;1.50;;;;;;;;;;5033606;28;20182;-69
2022/05/26 03:17:12;;;;;;;2.65;1.45;;;;;;;;;;5026475;28;20218;-68
2022/05/26 03:19:38;;;;;;;1.70;1.30;;;;;;;;;;5026746;28;20249;-69
2022/05/26 03:22:04;;;;;;;1.52;1.40;;;;;;;;;;5028467;28;20189;-68
2022/05/26 03:24:31;;;;;;;1.75;1.60;;;;;;;;;;5030521;28;20214;-70
2022/05/26 03:26:57;;;;;;;1.90;1.73;;;;;;;;;;5040482;28;20637;-69
2022/05/26 03:29:23;;;;;;;2.38;1.80;;;;;;;;;;5029835;28;20211;-70
2022/05/26 03:31:48;;;;;;;4.72;1.95;;;;;;;;;;5026221;28;20574;-69
2022/05/26 03:42:29;;;;;;;3.33;1.92;;;;;;;;;;5027266;28;20723;-71
2022/05/26 03:44:56;;;;;;;3.38;1.98;;;;;;;;;;5031698;28;20233;-69
2022/05/26 03:47:22;;;;;;;2.22;2.00;;;;;;;;;;5028277;28;20272;-69
2022/05/26 03:49:49;;;;;;;2.47;1.70;;;;;;;;;;5033140;28;21095;-69
2022/05/26 03:52:15;;;;;;;2.08;1.85;;;;;;;;;;5029362;28;20520;-68
2022/05/26 03:54:41;;;;;;;3.45;1.80;;;;;;;;;;5028975;28;20184;-68
2022/05/26 03:57:07;;;;;;;3.67;2.17;;;;;;;;;;5030071;28;20217;-71
2022/05/26 03:59:34;;;;;;;3.25;1.98;;;;;;;;;;5026165;28;20305;-69
2022/05/26 04:02:00;;;;;;;2.00;1.80;;;;;;;;;;5030856;28;20179;-72
2022/05/26 04:04:26;;;;;;;3.40;1.80;;;;;;;;;;5026987;28;20269;-70
2022/05/26 04:06:52;;;;;;;1.60;1.50;;;;;;;;;;5034766;28;20261;-69
2022/05/26 04:09:18;;;;;;;1.67;1.48;;;;;;;;;;5028630;28;20213;-70
2022/05/26 04:11:45;;;;;;;2.15;1.40;;;;;;;;;;5025727;28;20631;-69
2022/05/26 04:14:11;;;;;;;3.75;1.60;;;;;;;;;;5028700;28;20446;-69
2022/05/26 04:16:37;;;;;;;2.00;1.60;;;;;;;;;;5026078;28;20210;-68
2022/05/26 04:19:03;;;;;;;3.55;1.60;;;;;;;;;;5029099;28;20673;-70
2022/05/26 04:21:29;;;;;;;2.35;1.25;;;;;;;;;;5025546;28;20198;-70
2022/05/26 04:23:55;;;;;;;3.50;1.75;;;;;;;;;;5024845;28;20266;-70
2022/05/26 04:26:21;;;;;;;1.55;1.45;;;;;;;;;;5025311;28;20265;-69
2022/05/26 04:28:47;;;;;;;4.47;1.90;;;;;;;;;;5025460;28;20577;-69
2022/05/26 04:31:13;;;;;;;3.40;1.58;;;;;;;;;;5028944;28;20198;-69
2022/05/26 04:33:39;;;;;;;2.85;1.70;;;;;;;;;;5032880;28;20194;-70
2022/05/26 04:36:06;;;;;;;1.60;1.50;;;;;;;;;;5025343;28;20960;-70
2022/05/26 04:38:32;;;;;;;1.40;1.25;;;;;;;;;;5035940;28;20505;-70
2022/05/26 04:40:59;;;;;;;1.58;1.42;;;;;;;;;;5026835;28;20266;-70
2022/05/26 04:43:25;;;;;;;2.65;1.40;;;;;;;;;;5025310;28;20268;-69
2022/05/26 04:45:52;;;;;;;2.15;1.42;;;;;;;;;;5035050;28;20634;-70
2022/05/26 04:48:21;;;;;;;2.10;1.80;;;;;;;;;;5027461;28;20555;-69
2022/05/26 04:50:47;;;;;;;2.03;1.35;;;;;;;;;;5031728;28;20189;-71
2022/05/26 04:53:13;;;;;;;2.83;1.48;;;;;;;;;;5024430;28;21033;-72
2022/05/26 04:55:39;;;;;;;1.75;1.38;;;;;;;;;;5024597;28;20179;-69
2022/05/26 04:58:05;;;;;;;2.55;1.52;;;;;;;;;;5032191;28;20683;-69
2022/05/26 05:00:31;;;;;;;4.13;1.70;;;;;;;;;;5036752;28;20221;-70
2022/05/26 05:02:57;;;;;;;2.05;1.50;;;;;;;;;;5030132;28;20214;-69
2022/05/26 05:05:23;;;;;;;1.95;1.73;;;;;;;;;;5034654;28;20313;-70
2022/05/26 05:07:49;;;;;;;4.88;1.90;;;;;;;;;;5024242;28;20214;-70
2022/05/26 05:10:15;;;;;;;2.33;1.67;;;;;;;;;;5024699;28;20193;-71
2022/05/26 05:12:41;;;;;;;2.10;1.60;;;;;;;;;;5024593;28;20186;-68
2022/05/26 05:15:09;;;;;;;1.98;1.70;;;;;;;;;;5028246;28;20548;-69
2022/05/26 05:17:35;;;;;;;1.92;1.55;;;;;;;;;;5024365;28;21002;-72
2022/05/26 05:20:01;;;;;;;2.88;1.63;;;;;;;;;;5024633;28;20226;-69
2022/05/26 05:22:36;;;;;;;2.50;2.17;;;;;;;;;;5031340;28;20179;-68
2022/05/26 05:25:08;;;;;;;1.75;1.65;;;;;;;;;;5033502;28;20194;-70
2022/05/26 05:27:37;;;;;;;2.00;1.88;;;;;;;;;;5027030;28;20235;-69
2022/05/26 05:30:05;;;;;;;2.58;1.90;;;;;;;;;;5033308;28;20290;-68
2022/05/26 05:32:41;;;;;;;2.53;1.90;;;;;;;;;;5028082;28;20198;-70
2022/05/26 05:35:11;;;;;;;2.00;1.90;;;;;;;;;;5028125;28;20190;-69
2022/05/26 05:37:37;;;;;;;2.53;1.88;;;;;;;;;;5023494;28;20285;-70
2022/05/26 05:40:04;;;;;;;2.78;2.30;;;;;;;;;;5025016;28;20289;-70
2022/05/26 05:42:30;;;;;;;2.50;2.25;;;;;;;;;;5024370;28;20187;-69
2022/05/26 05:44:57;;;;;;;3.78;2.20;;;;;;;;;;5030448;28;20187;-71
2022/05/26 05:47:23;;;;;;;2.28;2.00;;;;;;;;;;5026939;28;20668;-68
2022/05/26 05:49:49;;;;;;;2.88;2.58;;;;;;;;;;5030416;28;20183;-70
2022/05/26 05:52:18;;;;;;;3.05;2.67;;;;;;;;;;5024960;28;20383;-71
2022/05/26 05:54:44;;;;;;;3.72;2.70;;;;;;;;;;5034146;28;20183;-69
2022/05/26 05:57:10;;;;;;;3.38;2.92;;;;;;;;;;5026969;28;20598;-70
2022/05/26 05:59:36;;;;;;;3.33;3.03;;;;;;;;;;5031213;28;20249;-70
2022/05/26 06:02:02;;;;;;;3.72;3.38;;;;;;;;;;5032055;28;20186;-68
2022/05/26 06:04:28;;;;;;;3.65;3.35;;;;;;;;;;5029380;28;20186;-72
2022/05/26 06:06:54;;;;;;;3.95;3.65;;;;;;;;;;5027917;28;20182;-70
2022/05/26 06:09:21;;;;;;;5.03;3.72;;;;;;;;;;5030139;28;20206;-69
2022/05/26 06:11:47;;;;;;;4.10;3.70;;;;;;;;;;5038985;28;20638;-69
2022/05/26 06:14:14;;;;;;;4.63;3.33;;;;;;;;;;5030438;28;20594;-72
2022/05/26 06:16:40;;;;;;;3.22;2.92;;;;;;;;;;5027706;28;20215;-69
2022/05/26 06:19:06;;;;;;;6.38;3.50;;;;;;;;;;5027487;28;20293;-70
2022/05/26 06:21:32;;;;;;;5.38;3.90;;;;;;;;;;5028837;28;20285;-70
2022/05/26 06:23:58;;;;;;;4.15;3.47;;;;;;;;;;5032403;28;20971;-72
2022/05/26 06:26:31;;;;;;;3.90;3.47;;;;;;;;;;5029831;28;20190;-69
2022/05/26 06:37:13;;;;;;;5.50;4.00;;;;;;;;;;5042417;28;20198;-68
2022/05/26 06:37:13;;;;;;;6.78;5.25;;;;;;;;;;5030205;28;20245;-69
2022/05/26 06:39:39;;;;;;;6.10;4.45;;;;;;;;;;5035345;28;20209;-69
2022/05/26 06:42:06;;;;;;;5.75;5.22;;;;;;;;;;5031645;28;20183;-70
2022/05/26 06:44:33;;;;;;;5.80;5.30;;;;;;;;;;5032516;28;20192;-69
2022/05/26 06:46:59;;;;;;;5.25;4.85;;;;;;;;;;5027129;28;20183;-68
2022/05/26 06:49:24;;;;;;;5.60;5.10;;;;;;;;;;5027502;28;20699;-68
2022/05/26 06:51:50;;;;;;;6.25;5.65;;;;;;;;;;5031967;28;20190;-69
2022/05/26 06:54:17;;;;;;;7.22;4.97;;;;;;;;;;5033814;28;20245;-71
2022/05/26 06:56:43;;;;;;;5.40;4.90;;;;;;;;;;5039244;28;20228;-69
2022/05/26 06:59:11;;;;;;;6.20;5.57;;;;;;;;;;5030121;28;20215;-70
2022/05/26 07:01:37;;;;;;;5.85;5.28;;;;;;;;;;5031783;28;20611;-70
2022/05/26 07:04:03;;;;;;;5.40;4.95;;;;;;;;;;5031426;28;20208;-71
2022/05/26 07:06:29;;;;;;;5.45;4.95;;;;;;;;;;5028413;28;20194;-70
2022/05/26 07:08:56;;;;;;;5.93;4.63;;;;;;;;;;5030772;28;20202;-69
2022/05/26 07:11:22;;;;;;;5.70;4.30;;;;;;;;;;5029030;28;20191;-69
2022/05/26 07:13:48;;;;;;;4.13;3.70;;;;;;;;;;5034785;28;20183;-69
2022/05/26 07:16:15;;;;;;;3.10;2.90;;;;;;;;;;5030402;28;20179;-70
2022/05/26 07:18:41;;;;;;;3.40;3.10;;;;;;;;;;5026315;28;20206;-70
2022/05/26 07:21:08;;;;;;;3.42;3.13;;;;;;;;;;5029875;28;20254;-70
2022/05/26 07:23:34;;;;;;;3.85;3.53;;;;;;;;;;5026601;28;20229;-70
2022/05/26 07:26:04;;;;;;;4.03;3.47;;;;;;;;;;5030501;28;20701;-70
2022/05/26 07:28:32;;;;;;;3.83;3.53;;;;;;;;;;5032787;28;20612;-70
2022/05/26 07:30:58;;;;;;;4.70;3.92;;;;;;;;;;5033246;28;20245;-69
2022/05/26 07:33:24;;;;;;;5.18;4.35;;;;;;;;;;5032712;28;20190;-71
2022/05/26 07:35:50;;;;;;;4.93;4.50;;;;;;;;;;5033507;28;20198;-70
2022/05/26 07:41:19;;;;;;;4.20;3.80;;;;;;;;;;5032064;28;20260;-71
2022/05/26 07:43:48;;;;;;;4.63;4.22;;;;;;;;;;5037310;28;20185;-70
2022/05/26 07:46:17;;;;;;;4.22;3.78;;;;;;;;;;5031430;28;20183;-69
2022/05/26 07:48:43;;;;;;;4.53;4.13;;;;;;;;;;5033421;28;20203;-71
2022/05/26 07:51:09;;;;;;;6.65;4.70;;;;;;;;;;5029003;28;20236;-69
2022/05/26 07:53:35;;;;;;;6.38;4.68;;;;;;;;;;5027431;28;20265;-70
2022/05/26 07:56:02;;;;;;;5.03;3.92;;;;;;;;;;5034493;28;20182;-70
2022/05/26 07:58:28;;;;;;;4.07;3.63;;;;;;;;;;5033694;28;20198;-70
2022/05/26 08:00:54;;;;;;;5.72;3.50;;;;;;;;;;5033573;28;20214;-69
2022/05/26 08:03:21;;;;;;;3.10;2.83;;;;;;;;;;5033420;28;20225;-69
2022/05/26 08:05:47;;;;;;;3.13;2.83;;;;;;;;;;5035878;28;20186;-70
2022/05/26 08:08:13;;;;;;;4.00;3.20;;;;;;;;;;5037400;28;20647;-70
2022/05/26 08:10:39;;;;;;;4.22;3.55;;;;;;;;;;5035295;28;20210;-69
2022/05/26 08:13:06;;;;;;;4.18;2.83;;;;;;;;;;5032618;28;20190;-69
2022/05/26 08:15:32;;;;;;;4.00;3.17;;;;;;;;;;5038510;28;20656;-69
2022/05/26 08:17:58;;;;;;;4.72;4.00;;;;;;;;;;5035826;28;20819;-69
2022/05/26 08:20:25;;;;;;;3.35;3.05;;;;;;;;;;5034195;28;20222;-70
2022/05/26 08:22:50;;;;;;;3.10;2.83;;;;;;;;;;5034999;28;20661;-70
2022/05/26 08:25:16;;;;;;;4.43;3.10;;;;;;;;;;5035074;28;20225;-68
2022/05/26 08:27:42;;;;;;;3.95;3.17;;;;;;;;;;5033203;28;20688;-69
2022/05/26 08:30:09;;;;;;;5.10;3.30;;;;;;;;;;5038436;28;20186;-70
2022/05/26 08:32:35;;;;;;;5.38;3.08;;;;;;;;;;5032243;28;20716;-70
2022/05/26 08:35:04;;;;;;;3.50;3.20;;;;;;;;;;5032204;28;20182;-69
2022/05/26 08:37:30;;;;;;;3.30;3.00;;;;;;;;;;5038230;28;20193;-69
2022/05/26 08:39:56;;;;;;;3.70;2.80;;;;;;;;;;5035958;28;20298;-70
2022/05/26 08:42:25;;;;;;;4.32;3.42;;;;;;;;;;5028777;28;20198;-69
2022/05/26 08:44:55;;;;;;;4.80;3.00;;;;;;;;;;5033360;28;20273;-70
2022/05/26 08:47:21;;;;;;;5.25;3.15;;;;;;;;;;5026322;28;20207;-70
2022/05/26 08:49:47;;;;;;;3.75;3.30;;;;;;;;;;5027549;28;20194;-69
2022/05/26 08:52:15;;;;;;;3.90;3.50;;;;;;;;;;5033570;28;20228;-69
2022/05/26 08:54:48;;;;;;;3.47;3.20;;;;;;;;;;5026734;28;20178;-69
2022/05/26 08:57:16;;;;;;;3.40;3.10;;;;;;;;;;5035701;28;20773;-69
2022/05/26 08:59:44;;;;;;;3.72;3.13;;;;;;;;;;5032681;28;20287;-68
2022/05/26 09:02:30;;;;;;;6.07;3.85;;;;;;;;;;5028917;28;20236;-69
2022/05/26 09:05:05;;;;;;;3.70;3.35;;;;;;;;;;5016624;28;20199;-69
2022/05/26 09:13:06;;;;;;;4.18;3.40;;;;;;;;;;5029148;28;20244;-69
2022/05/26 09:15:34;;;;;;;4.45;3.30;;;;;;;;;;5031901;28;20198;-69
2022/05/26 09:18:09;;;;;;;3.55;3.10;;;;;;;;;;5024384;28;20211;-70
2022/05/26 09:20:39;;;;;;;3.17;2.85;;;;;;;;;;5032380;28;20213;-71
2022/05/26 09:23:09;;;;;;;3.30;3.00;;;;;;;;;;5029388;28;20186;-69
2022/05/26 09:25:38;;;;;;;3.83;3.17;;;;;;;;;;5030702;28;20257;-70
2022/05/26 09:28:05;;;;;;;5.35;3.00;;;;;;;;;;5033841;28;20297;-69
2022/05/26 09:30:32;;;;;;;3.75;2.90;;;;;;;;;;5029529;28;20186;-69
2022/05/26 09:32:58;;;;;;;3.70;3.10;;;;;;;;;;5032807;28;20186;-68
2022/05/26 09:35:27;;;;;;;4.88;3.10;;;;;;;;;;5029245;28;20708;-71
2022/05/26 09:37:57;;;;;;;3.92;3.20;;;;;;;;;;5029190;28;20206;-69
2022/05/26 09:40:31;;;;;;;4.82;3.55;;;;;;;;;;5026501;28;20732;-69
2022/05/26 09:43:02;;;;;;;5.15;3.30;;;;;;;;;;5028867;28;20187;-69
2022/05/26 09:45:33;;;;;;;5.10;3.03;;;;;;;;;;5033993;28;20178;-70
2022/05/26 09:48:01;;;;;;;4.47;3.38;;;;;;;;;;5027090;28;20736;-70
2022/05/26 09:50:42;;;;;;;4.07;2.92;;;;;;;;;;5025328;28;20218;-69
2022/05/26 09:53:09;;;;;;;4.47;3.25;;;;;;;;;;5038994;28;20557;-70
2022/05/26 09:55:46;;;;;;;4.97;2.83;;;;;;;;;;5024229;28;20182;-69
2022/05/26 09:58:13;;;;;;;3.58;2.75;;;;;;;;;;5023575;28;20214;-69
2022/05/26 10:00:43;;;;;;;3.35;2.53;;;;;;;;;;5028280;28;20213;-70
2022/05/26 10:03:22;;;;;;;2.70;2.10;;;;;;;;;;5031262;28;20186;-70
2022/05/26 10:06:06;;;;;;;2.10;1.90;;;;;;;;;;5027303;28;20640;-69
2022/05/26 10:08:44;;;;;;;5.13;2.10;;;;;;;;;;5031737;28;20209;-69
2022/05/26 10:11:13;;;;;;;1.85;1.75;;;;;;;;;;5030707;28;20221;-70
2022/05/26 10:13:58;;;;;;;1.77;1.63;;;;;;;;;;5028941;28;20194;-69
2022/05/26 10:16:25;;;;;;;2.30;1.60;;;;;;;;;;5029784;28;21086;-69
2022/05/26 10:19:00;;;;;;;2.20;1.50;;;;;;;;;;5024839;28;20230;-69
2022/05/26 10:21:41;;;;;;;2.72;1.52;;;;;;;;;;5037164;28;20206;-69
2022/05/26 10:24:18;;;;;;;2.90;1.27;;;;;;;;;;5036803;28;20181;-70
2022/05/26 10:27:02;;;;;;;2.53;1.50;;;;;;;;;;5034679;28;20175;-69
2022/05/26 10:29:31;;;;;;;3.95;1.30;;;;;;;;;;5034405;28;20583;-70
2022/05/26 10:31:57;;;;;;;1.95;1.30;;;;;;;;;;5036273;28;20195;-69
2022/05/26 10:34:47;;;;;;;2.30;1.50;;;;;;;;;;5026231;28;20556;-69
2022/05/26 10:37:22;;;;;;;3.00;1.40;;;;;;;;;;5041059;28;20184;-71
2022/05/26 10:39:56;;;;;;;2.55;1.17;;;;;;;;;;5035802;28;20301;-69
2022/05/26 10:42:43;;;;;;;1.33;1.10;;;;;;;;;;5028008;28;20187;-69
2022/05/26 10:45:31;;;;;;;1.30;1.20;;;;;;;;;;5027306;28;20182;-69
2022/05/26 10:48:15;;;;;;;1.30;1.20;;;;;;;;;;5033704;28;20576;-70
2022/05/26 10:51:02;;;;;;;4.38;1.48;;;;;;;;;;5037012;28;21049;-70
2022/05/26 10:53:50;;;;;;;2.53;1.05;;;;;;;;;;5027367;28;20201;-69
2022/05/26 10:56:16;;;;;;;2.10;1.40;;;;;;;;;;5033282;28;20209;-69
2022/05/26 10:58:44;;;;;;;2.80;1.23;;;;;;;;;;5034049;28;20282;-71
2022/05/26 11:01:17;;;;;;;3.35;1.40;;;;;;;;;;5034292;28;20774;-70
2022/05/26 11:03:48;;;;;;;2.65;1.25;;;;;;;;;;5037089;28;20198;-69
2022/05/26 11:06:33;;;;;;;2.70;1.20;;;;;;;;;;5035001;28;20653;-69
2022/05/26 11:09:07;;;;;;;4.32;1.77;;;;;;;;;;5036096;28;20216;-70
2022/05/26 11:11:50;;;;;;;2.83;1.20;;;;;;;;;;5036773;28;20173;-69
2022/05/26 11:17:39;;;;;;;3.15;1.40;;;;;;;;;;5040308;28;20196;-69
2022/05/26 11:20:08;;;;;;;3.83;1.35;;;;;;;;;;5019530;28;20234;-70
2022/05/26 11:22:34;;;;;;;1.70;1.08;;;;;;;;;;5034525;28;20263;-69
2022/05/26 11:25:00;;;;;;;2.42;1.25;;;;;;;;;;5035649;28;20183;-70
2022/05/26 11:27:42;;;;;;;1.25;1.00;;;;;;;;;;5039981;28;20182;-68
2022/05/26 11:38:34;;;;;;;2.53;1.30;;;;;;;;;;5043673;28;20258;-69
2022/05/26 11:41:05;;;;;;;2.45;1.10;;;;;;;;;;5041016;28;20219;-69
2022/05/26 11:43:34;;;;;;;2.63;1.40;;;;;;;;;;5040748;28;20638;-69
2022/05/26 11:46:00;;;;;;;3.28;1.27;;;;;;;;;;5031067;28;20183;-70
2022/05/26 11:48:32;;;;;;;4.45;1.48;;;;;;;;;;5034478;28;20195;-69
2022/05/26 11:50:58;;;;;;;3.63;1.23;;;;;;;;;;5031194;28;20658;-70
2022/05/26 11:53:33;;;;;;;1.80;1.30;;;;;;;;;;5040568;28;20232;-68
2022/05/26 11:56:03;;;;;;;2.08;1.30;;;;;;;;;;5029712;28;20181;-69
2022/05/26 11:58:29;;;;;;;4.05;1.50;;;;;;;;;;5039531;28;20297;-68
2022/05/26 12:01:14;;;;;;;3.75;1.40;;;;;;;;;;5037080;28;20210;-68
2022/05/26 12:03:55;;;;;;;4.03;1.35;;;;;;;;;;5036590;28;20225;-69
2022/05/26 12:06:42;;;;;;;3.00;1.40;;;;;;;;;;5035672;28;20185;-69
2022/05/26 12:09:21;;;;;;;3.40;1.63;;;;;;;;;;5032803;28;20210;-68
2022/05/26 12:12:06;;;;;;;3.30;1.38;;;;;;;;;;5034033;28;20183;-67
2022/05/26 12:14:59;;;;;;;2.28;1.50;;;;;;;;;;5036102;28;20190;-69
2022/05/26 12:17:32;;;;;;;3.53;1.55;;;;;;;;;;5025375;28;20274;-70
2022/05/26 12:19:58;;;;;;;1.90;1.30;;;;;;;;;;5034284;28;20596;-68
2022/05/26 12:22:32;;;;;;;2.55;1.50;;;;;;;;;;5037807;28;20225;-67
2022/05/26 12:25:07;;;;;;;3.58;1.77;;;;;;;;;;5034125;28;20213;-69
2022/05/26 12:27:55;;;;;;;3.67;1.38;;;;;;;;;;5034015;28;20696;-69
2022/05/26 12:30:30;;;;;;;3.50;1.67;;;;;;;;;;5037340;28;20186;-69
2022/05/26 12:32:56;;;;;;;3.00;1.50;;;;;;;;;;5039644;28;20232;-68
2022/05/26 12:35:31;;;;;;;2.25;1.65;;;;;;;;;;5036416;28;20187;-69
2022/05/26 12:38:19;;;;;;;2.15;1.40;;;;;;;;;;5034231;28;20316;-69
2022/05/26 12:41:04;;;;;;;3.13;1.35;;;;;;;;;;5036716;28;20279;-69
2022/05/26 12:43:41;;;;;;;4.28;1.58;;;;;;;;;;5039643;28;20183;-69
2022/05/26 12:46:26;;;;;;;2.13;1.65;;;;;;;;;;5034435;28;20179;-68
2022/05/26 12:49:15;;;;;;;5.82;1.77;;;;;;;;;;5039755;28;20206;-70
2022/05/26 12:51:42;;;;;;;3.97;1.77;;;;;;;;;;5014719;28;20197;-69
2022/05/26 12:54:14;;;;;;;4.15;1.42;;;;;;;;;;5035575;28;20179;-69
2022/05/26 12:56:40;;;;;;;2.28;1.30;;;;;;;;;;5035162;28;20213;-69
2022/05/26 12:59:06;;;;;;;1.92;1.20;;;;;;;;;;5035477;28;20242;-70
2022/05/26 13:01:33;;;;;;;2.55;1.40;;;;;;;;;;5037348;28;20186;-69
2022/05/26 13:04:04;;;;;;;2.92;1.30;;;;;;;;;;5040813;28;20236;-69
2022/05/26 13:06:39;;;;;;;2.42;1.27;;;;;;;;;;5034651;28;20187;-69
2022/05/26 13:09:18;;;;;;;1.48;1.13;;;;;;;;;;5037831;28;20267;-69
2022/05/26 13:11:54;;;;;;;3.53;1.73;;;;;;;;;;5038846;28;20166;-69
2022/05/26 13:14:36;;;;;;;3.45;1.45;;;;;;;;;;5038172;28;20178;-70
2022/05/26 13:17:11;;;;;;;3.05;1.70;;;;;;;;;;5038461;28;20224;-69
2022/05/26 13:19:42;;;;;;;2.72;1.85;;;;;;;;;;5036252;28;20221;-69
2022/05/26 13:22:13;;;;;;;2.95;1.60;;;;;;;;;;5030407;28;20273;-69
2022/05/26 13:24:48;;;;;;;2.50;1.48;;;;;;;;;;5037785;28;20167;-70
2022/05/26 13:27:14;;;;;;;3.15;1.63;;;;;;;;;;5033240;28;20197;-70
2022/05/26 13:29:43;;;;;;;2.92;1.50;;;;;;;;;;5024269;28;20203;-69
2022/05/26 13:34:56;;;;;;;3.03;1.58;;;;;;;;;;5022748;28;20390;-69
2022/05/26 13:37:24;;;;;;;3.25;1.95;;;;;;;;;;5036665;28;20277;-69
2022/05/26 13:40:07;;;;;;;4.43;1.77;;;;;;;;;;5046264;28;20204;-69
2022/05/26 13:42:34;;;;;;;4.13;2.00;;;;;;;;;;5039401;28;20218;-69
2022/05/26 13:45:02;;;;;;;3.88;1.85;;;;;;;;;;5042948;28;20586;-69
2022/05/26 13:47:28;;;;;;;3.53;1.90;;;;;;;;;;5035766;28;20262;-71
2022/05/26 13:50:02;;;;;;;3.47;1.83;;;;;;;;;;5038274;28;20270;-70
2022/05/26 13:52:28;;;;;;;2.95;2.20;;;;;;;;;;5047176;28;20178;-69
2022/05/26 13:54:54;;;;;;;2.25;1.52;;;;;;;;;;5041185;28;20201;-69
2022/05/26 13:57:24;;;;;;;2.92;1.95;;;;;;;;;;5045678;28;20654;-69
2022/05/26 14:00:01;;;;;;;4.60;1.90;;;;;;;;;;5042389;28;20203;-69
2022/05/26 14:02:27;;;;;;;2.28;1.50;;;;;;;;;;5044633;28;20660;-70
2022/05/26 14:05:01;;;;;;;4.88;2.00;;;;;;;;;;5036199;28;20190;-68
2022/05/26 14:07:32;;;;;;;3.15;1.50;;;;;;;;;;5040859;28;20185;-69
2022/05/26 14:10:06;;;;;;;3.30;1.70;;;;;;;;;;5035633;28;20193;-69
2022/05/26 14:12:32;;;;;;;1.90;1.67;;;;;;;;;;5037945;28;20220;-69
2022/05/26 14:14:58;;;;;;;2.60;1.70;;;;;;;;;;5038779;28;20526;-69
2022/05/26 14:17:26;;;;;;;3.97;1.80;;;;;;;;;;5042469;28;20190;-68
2022/05/26 14:19:55;;;;;;;4.05;1.75;;;;;;;;;;5041201;28;20237;-68
2022/05/26 14:22:23;;;;;;;2.00;1.70;;;;;;;;;;5037869;28;20220;-68
2022/05/26 14:24:56;;;;;;;2.47;1.80;;;;;;;;;;5044967;28;20189;-69
2022/05/26 14:27:30;;;;;;;3.83;1.65;;;;;;;;;;5044961;28;20181;-68
2022/05/26 14:29:57;;;;;;;5.13;1.67;;;;;;;;;;5039167;28;20665;-69
2022/05/26 14:32:38;;;;;;;2.85;1.48;;;;;;;;;;5033214;28;20202;-68
2022/05/26 14:35:15;;;;;;;4.13;1.73;;;;;;;;;;5036939;28;20182;-68
2022/05/26 14:37:41;;;;;;;4.07;1.75;;;;;;;;;;5036470;28;20312;-69
2022/05/26 14:40:10;;;;;;;3.53;1.50;;;;;;;;;;5038659;28;20665;-69
2022/05/26 14:42:40;;;;;;;4.07;2.25;;;;;;;;;;5040495;28;20171;-69
2022/05/26 14:45:11;;;;;;;5.15;3.10;;;;;;;;;;5041619;28;20558;-69
2022/05/26 14:47:38;;;;;;;4.63;3.28;;;;;;;;;;5031378;28;20214;-69
2022/05/26 14:50:05;;;;;;;4.32;2.78;;;;;;;;;;5032585;28;20182;-69
2022/05/26 14:52:31;;;;;;;4.38;2.75;;;;;;;;;;5037426;28;20642;-69
2022/05/26 14:57:44;;;;;;;6.03;3.10;;;;;;;;;;5038687;28;20221;-70
2022/05/26 15:00:12;;;;;;;3.63;2.90;;;;;;;;;;5028348;28;20261;-69
2022/05/26 15:02:38;;;;;;;9.00;2.90;;;;;;;;;;5038563;28;20248;-69
2022/05/26 15:05:05;;;;;;;3.30;3.00;;;;;;;;;;5035500;28;20187;-69
2022/05/26 15:07:32;;;;;;;10.85;4.13;;;;;;;;;;5026654;28;20273;-69
2022/05/26 15:09:58;;;;;;;5.18;3.30;;;;;;;;;;5039870;28;20190;-69
2022/05/26 15:12:24;;;;;;;5.88;3.47;;;;;;;;;;5035655;28;20558;-69
2022/05/26 15:14:50;;;;;;;5.82;3.50;;;;;;;;;;5039158;28;20206;-68
2022/05/26 15:17:19;;;;;;;5.50;3.97;;;;;;;;;;5041657;28;20198;-68
2022/05/26 15:19:52;;;;;;;5.60;4.03;;;;;;;;;;5037106;28;20633;-69
2022/05/26 15:22:19;;;;;;;4.75;4.05;;;;;;;;;;5039156;28;20646;-68
2022/05/26 15:24:46;;;;;;;5.47;3.95;;;;;;;;;;5034119;28;20183;-69
2022/05/26 15:27:13;;;;;;;6.30;4.13;;;;;;;;;;5031104;28;20179;-68
2022/05/26 15:29:44;;;;;;;6.03;4.10;;;;;;;;;;5030993;28;20207;-68
2022/05/26 15:32:10;;;;;;;4.82;4.00;;;;;;;;;;5033727;28;20201;-67
2022/05/26 15:34:39;;;;;;;5.72;3.88;;;;;;;;;;5029620;28;20182;-69
2022/05/26 15:37:05;;;;;;;4.60;3.95;;;;;;;;;;5037457;28;20211;-68
2022/05/26 15:39:31;;;;;;;5.47;4.03;;;;;;;;;;5028778;28;20206;-69
2022/05/26 15:41:57;;;;;;;5.93;4.13;;;;;;;;;;5043594;28;20517;-69